createdAt,value
2018-07-19T00:02:06.585Z,64.90
2018-07-19T00:04:35.303Z,64.20
2018-07-19T00:07:03.990Z,64.10
2018-07-19T00:09:32.281Z,64.40
2018-07-19T00:12:00.576Z,64.70
2018-07-19T00:14:28.922Z,64.70
2018-07-19T00:21:53.450Z,64.00
2018-07-19T00:24:21.703Z,64.10
2018-07-19T00:26:50.557Z,64.20
2018-07-19T00:29:19.451Z,64.00
2018-07-19T00:31:48.066Z,63.80
2018-07-19T00:34:16.588Z,63.90
2018-07-19T00:36:45.011Z,64.00
2018-07-19T00:39:13.544Z,64.00
2018-07-19T00:41:44.824Z,63.90
2018-07-19T00:44:14.270Z,64.00
2018-07-19T00:46:42.750Z,64.00
2018-07-19T00:49:11.034Z,64.00
2018-07-19T00:51:39.547Z,63.70
2018-07-19T00:54:08.008Z,63.50
2018-07-19T00:56:36.675Z,63.20
2018-07-19T00:59:05.222Z,62.90
2018-07-19T01:01:33.839Z,62.80
2018-07-19T01:04:02.402Z,62.70
2018-07-19T01:06:31.018Z,62.60
2018-07-19T01:08:59.702Z,62.60
2018-07-19T01:11:28.758Z,62.60
2018-07-19T01:13:57.133Z,62.80
2018-07-19T01:16:25.667Z,62.40
2018-07-19T01:18:54.007Z,62.40
2018-07-19T01:21:22.547Z,62.40
2018-07-19T01:23:50.857Z,62.50
2018-07-19T01:26:19.169Z,62.70
2018-07-19T01:28:47.898Z,62.70
2018-07-19T01:31:17.345Z,62.60
2018-07-19T01:33:45.720Z,62.60
2018-07-19T01:36:14.338Z,62.50
2018-07-19T01:38:42.623Z,62.70
2018-07-19T01:41:22.227Z,62.90
2018-07-19T01:43:50.830Z,62.90
2018-07-19T01:48:47.539Z,63.10
2018-07-19T01:51:16.178Z,63.20
2018-07-19T01:53:44.780Z,63.40
2018-07-19T01:56:13.075Z,63.40
2018-07-19T01:58:41.388Z,63.70
2018-07-19T02:01:19.186Z,63.30
2018-07-19T02:03:47.640Z,63.20
2018-07-19T02:06:15.959Z,63.20
2018-07-19T02:08:44.486Z,63.20
2018-07-19T02:11:12.945Z,63.20
2018-07-19T02:13:48.943Z,62.70
2018-07-19T02:16:17.962Z,62.70
2018-07-19T02:18:46.231Z,63.00
2018-07-19T02:21:14.531Z,63.10
2018-07-19T02:23:43.055Z,63.20
2018-07-19T02:26:11.263Z,63.00
2018-07-19T02:28:40.346Z,62.80
2018-07-19T02:31:13.885Z,62.90
2018-07-19T02:33:42.125Z,63.10
2018-07-19T02:36:10.376Z,63.00
2018-07-19T02:38:38.666Z,62.70
2018-07-19T02:41:06.971Z,62.70
2018-07-19T02:43:35.351Z,62.60
2018-07-19T02:46:03.674Z,62.50
2018-07-19T02:48:31.953Z,62.60
2018-07-19T02:51:00.304Z,62.70
2018-07-19T02:53:28.854Z,62.60
2018-07-19T02:58:39.846Z,62.30
2018-07-19T03:01:19.475Z,62.10
2018-07-19T03:03:47.886Z,62.90
2018-07-19T03:06:16.142Z,62.40
2018-07-19T03:08:44.436Z,62.30
2018-07-19T03:11:12.976Z,62.60
2018-07-19T03:13:46.593Z,62.80
2018-07-19T03:16:14.907Z,62.70
2018-07-19T03:18:43.187Z,62.60
2018-07-19T03:21:12.036Z,62.50
2018-07-19T03:23:40.403Z,62.60
2018-07-19T03:26:08.723Z,62.70
2018-07-19T03:31:12.211Z,62.50
2018-07-19T03:33:40.745Z,62.20
2018-07-19T03:36:09.119Z,62.30
2018-07-19T03:38:37.422Z,62.30
2018-07-19T03:41:11.183Z,62.20
2018-07-19T03:43:40.258Z,62.20
2018-07-19T03:46:08.679Z,61.90
2018-07-19T03:48:37.714Z,61.40
2018-07-19T03:51:06.546Z,60.80
2018-07-19T03:53:34.927Z,60.80
2018-07-19T03:56:03.151Z,60.20
2018-07-19T03:58:32.284Z,60.10
2018-07-19T04:03:28.794Z,59.90
2018-07-19T04:05:57.066Z,59.50
2018-07-19T04:08:28.105Z,59.10
2018-07-19T04:10:56.446Z,59.00
2018-07-19T04:13:25.152Z,59.00
2018-07-19T04:15:54.110Z,58.90
2018-07-19T04:18:23.219Z,58.70
2018-07-19T04:20:53.705Z,58.50
2018-07-19T04:23:22.425Z,58.50
2018-07-19T04:25:50.738Z,58.50
2018-07-19T04:28:19.622Z,58.70
2018-07-19T04:30:48.007Z,58.80
2018-07-19T04:33:17.194Z,58.80
2018-07-19T04:35:45.492Z,58.40
2018-07-19T04:38:14.476Z,58.50
2018-07-19T04:40:42.820Z,58.10
2018-07-19T04:43:11.239Z,58.20
2018-07-19T04:45:39.759Z,57.80
2018-07-19T04:50:50.652Z,58.30
2018-07-19T04:53:18.885Z,57.70
2018-07-19T04:55:47.751Z,57.30
2018-07-19T04:58:16.026Z,57.60
2018-07-19T05:00:44.490Z,57.80
2018-07-19T05:03:13.594Z,57.60
2018-07-19T05:05:49.792Z,57.80
2018-07-19T05:08:19.567Z,57.70
2018-07-19T05:10:52.690Z,58.10
2018-07-19T05:13:21.523Z,58.00
2018-07-19T05:15:52.145Z,57.90
2018-07-19T05:18:21.225Z,57.90
2018-07-19T05:20:51.018Z,58.00
2018-07-19T05:23:19.903Z,57.70
2018-07-19T05:25:48.281Z,57.50
2018-07-19T05:28:16.552Z,57.10
2018-07-19T05:30:45.181Z,56.90
2018-07-19T05:33:15.116Z,56.80
2018-07-19T05:35:43.839Z,56.90
2018-07-19T05:38:12.410Z,57.00
2018-07-19T05:40:41.941Z,56.90
2018-07-19T05:43:11.382Z,57.00
2018-07-19T05:45:43.977Z,56.80
2018-07-19T05:48:14.795Z,56.60
2018-07-19T05:50:44.298Z,56.20
2018-07-19T05:53:12.600Z,55.50
2018-07-19T05:55:41.410Z,55.70
2018-07-19T05:58:11.238Z,55.70
2018-07-19T06:00:39.779Z,55.30
2018-07-19T06:03:08.759Z,55.60
2018-07-19T06:05:43.524Z,55.50
2018-07-19T06:08:12.301Z,55.50
2018-07-19T06:10:41.069Z,55.10
2018-07-19T06:13:10.294Z,54.90
2018-07-19T06:15:38.853Z,54.60
2018-07-19T06:18:07.213Z,54.90
2018-07-19T06:20:36.372Z,54.90
2018-07-19T06:23:04.813Z,54.90
2018-07-19T06:25:33.138Z,55.00
2018-07-19T06:28:02.894Z,55.30
2018-07-19T06:33:18.239Z,55.50
2018-07-19T06:36:02.486Z,55.00
2018-07-19T06:38:31.232Z,54.80
2018-07-19T06:41:00.625Z,54.90
2018-07-19T06:43:30.271Z,53.90
2018-07-19T06:45:59.562Z,53.90
2018-07-19T06:48:28.150Z,53.90
2018-07-19T06:50:56.507Z,53.70
2018-07-19T06:53:25.038Z,53.60
2018-07-19T06:58:21.688Z,53.80
2018-07-19T07:00:52.943Z,53.50
2018-07-19T07:03:27.836Z,53.30
2018-07-19T07:05:56.308Z,53.00
2018-07-19T07:08:26.602Z,52.60
2018-07-19T07:10:54.999Z,52.90
2018-07-19T07:13:23.967Z,52.70
2018-07-19T07:15:52.910Z,52.40
2018-07-19T07:18:21.962Z,52.10
2018-07-19T07:20:50.893Z,52.30
2018-07-19T07:23:23.410Z,52.40
2018-07-19T07:25:52.902Z,52.20
2018-07-19T07:28:22.832Z,52.30
2018-07-19T07:30:51.695Z,52.40
2018-07-19T07:33:20.488Z,52.20
2018-07-19T07:35:49.879Z,52.20
2018-07-19T07:38:20.351Z,53.00
2018-07-19T07:40:49.210Z,53.40
2018-07-19T07:43:19.901Z,52.80
2018-07-19T07:45:48.898Z,52.80
2018-07-19T07:48:19.550Z,53.00
2018-07-19T07:50:58.667Z,52.90
2018-07-19T07:53:28.024Z,53.00
2018-07-19T07:56:04.578Z,52.90
2018-07-19T07:58:33.562Z,52.70
2018-07-19T08:01:03.737Z,52.20
2018-07-19T08:03:32.929Z,52.40
2018-07-19T08:06:02.406Z,52.60
2018-07-19T08:08:30.998Z,52.50
2018-07-19T08:11:00.467Z,52.50
2018-07-19T08:13:35.091Z,52.20
2018-07-19T08:16:07.804Z,51.80
2018-07-19T08:18:37.892Z,51.90
2018-07-19T08:21:08.735Z,51.70
2018-07-19T08:23:39.471Z,51.40
2018-07-19T08:26:13.824Z,51.30
2018-07-19T08:28:43.009Z,50.90
2018-07-19T08:31:22.974Z,50.60
2018-07-19T08:33:52.203Z,51.00
2018-07-19T08:36:20.506Z,51.20
2018-07-19T08:38:48.876Z,51.00
2018-07-19T08:41:32.306Z,50.90
2018-07-19T08:44:07.113Z,51.00
2018-07-19T08:46:36.786Z,51.00
2018-07-19T08:49:05.306Z,50.80
2018-07-19T08:51:40.323Z,50.80
2018-07-19T08:54:09.135Z,50.00
2018-07-19T08:56:37.719Z,50.10
2018-07-19T08:59:07.761Z,50.70
2018-07-19T09:01:37.147Z,51.30
2018-07-19T09:04:07.735Z,51.10
2018-07-19T09:06:41.234Z,49.70
2018-07-19T09:09:11.007Z,50.10
2018-07-19T09:11:39.464Z,49.80
2018-07-19T09:14:08.930Z,49.60
2018-07-19T09:16:37.352Z,49.10
2018-07-19T09:19:05.935Z,49.40
2018-07-19T09:24:11.493Z,49.80
2018-07-19T09:26:41.252Z,48.50
2018-07-19T09:29:11.483Z,48.80
2018-07-19T09:31:47.367Z,49.00
2018-07-19T09:34:17.140Z,48.50
2018-07-19T09:36:46.426Z,48.80
2018-07-19T09:39:23.539Z,48.70
2018-07-19T09:42:00.100Z,49.20
2018-07-19T09:44:29.418Z,49.70
2018-07-19T09:46:58.883Z,49.20
2018-07-19T09:51:56.446Z,49.00
2018-07-19T09:54:36.208Z,49.20
2018-07-19T09:57:05.830Z,49.20
2018-07-19T09:59:35.865Z,49.50
2018-07-19T10:02:08.502Z,49.90
2018-07-19T10:04:38.799Z,49.40
2018-07-19T10:07:08.349Z,49.10
2018-07-19T10:12:12.064Z,48.60
2018-07-19T10:14:42.479Z,48.10
2018-07-19T10:17:16.757Z,48.70
2018-07-19T10:19:48.170Z,49.20
2018-07-19T10:24:46.627Z,48.30
2018-07-19T10:27:21.627Z,47.90
2018-07-19T10:29:53.080Z,47.50
2018-07-19T10:32:29.652Z,47.30
2018-07-19T10:34:58.494Z,47.60
2018-07-19T10:37:29.730Z,47.90
2018-07-19T10:39:58.306Z,48.00
2018-07-19T10:42:32.107Z,47.90
2018-07-19T10:45:01.611Z,48.20
2018-07-19T10:47:30.238Z,48.10
2018-07-19T10:50:01.832Z,48.50
2018-07-19T10:52:40.995Z,48.60
2018-07-19T10:55:21.825Z,48.20
2018-07-19T10:58:05.723Z,48.10
2018-07-19T11:00:35.914Z,47.70
2018-07-19T11:03:12.770Z,47.60
2018-07-19T11:05:43.627Z,47.90
2018-07-19T11:08:12.441Z,47.90
2018-07-19T11:10:43.429Z,48.20
2018-07-19T11:13:22.660Z,48.30
2018-07-19T11:15:54.956Z,48.60
2018-07-19T11:18:25.827Z,47.90
2018-07-19T11:23:28.958Z,48.60
2018-07-19T11:28:46.650Z,48.40
2018-07-19T11:31:18.251Z,48.30
2018-07-19T11:33:49.600Z,48.00
2018-07-19T11:36:21.129Z,48.30
2018-07-19T11:38:51.624Z,49.00
2018-07-19T11:41:20.886Z,49.90
2018-07-19T11:43:50.212Z,48.90
2018-07-19T11:46:22.611Z,48.80
2018-07-19T11:48:52.130Z,48.80
2018-07-19T11:51:21.364Z,49.00
2018-07-19T11:53:51.138Z,49.50
2018-07-19T11:56:20.563Z,49.40
2018-07-19T11:58:50.949Z,49.40
2018-07-19T12:01:25.848Z,49.70
2018-07-19T12:04:00.112Z,49.60
2018-07-19T12:06:29.196Z,49.80
2018-07-19T12:08:57.873Z,49.80
2018-07-19T12:11:27.503Z,49.00
2018-07-19T12:13:57.537Z,49.10
2018-07-19T12:16:29.354Z,49.60
2018-07-19T12:18:59.733Z,49.50
2018-07-19T12:21:34.727Z,49.80
2018-07-19T12:24:05.280Z,50.00
2018-07-19T12:26:36.394Z,49.70
2018-07-19T12:29:06.976Z,49.50
2018-07-19T12:31:41.542Z,49.30
2018-07-19T12:34:11.487Z,49.70
2018-07-19T12:36:41.888Z,49.40
2018-07-19T12:39:15.211Z,49.40
2018-07-19T12:41:45.940Z,49.70
2018-07-19T12:44:14.664Z,49.50
2018-07-19T12:46:44.774Z,49.60
2018-07-19T12:49:13.362Z,49.50
2018-07-19T12:53:16.676Z,49.80
2018-07-19T12:55:52.156Z,49.60
2018-07-19T12:58:30.434Z,49.90
2018-07-19T13:01:06.532Z,49.60
2018-07-19T13:03:35.452Z,49.30
2018-07-19T13:06:05.111Z,49.60
2018-07-19T13:08:37.121Z,49.60
2018-07-19T13:11:08.006Z,50.30
2018-07-19T13:13:38.979Z,49.60
2018-07-19T13:16:09.443Z,49.50
2018-07-19T13:18:39.356Z,49.80
2018-07-19T13:21:08.871Z,49.70
2018-07-19T13:23:37.917Z,49.40
2018-07-19T13:29:34.478Z,49.50
2018-07-19T13:37:46.880Z,49.30
2018-07-19T13:40:17.481Z,48.70
2018-07-19T13:43:02.496Z,48.50
2018-07-19T13:45:33.958Z,48.70
2018-07-19T13:48:06.606Z,49.00
2018-07-19T13:50:35.721Z,48.60
2018-07-19T13:54:23.694Z,49.20
2018-07-19T13:56:56.627Z,49.20
2018-07-19T13:59:37.007Z,48.80
2018-07-19T14:02:21.115Z,48.70
2018-07-19T14:04:55.203Z,48.90
2018-07-19T14:07:25.187Z,48.30
2018-07-19T14:09:55.606Z,48.40
2018-07-19T14:12:25.022Z,47.90
2018-07-19T14:14:56.516Z,47.60
2018-07-19T14:17:29.819Z,47.90
2018-07-19T14:20:02.789Z,48.10
2018-07-19T14:22:38.675Z,47.80
2018-07-19T14:25:10.248Z,47.50
2018-07-19T14:27:40.615Z,47.80
2018-07-19T14:30:16.691Z,48.00
2018-07-19T14:32:59.025Z,47.50
2018-07-19T14:35:28.420Z,47.80
2018-07-19T14:38:00.334Z,47.20
2018-07-19T14:40:30.439Z,47.50
2018-07-19T14:43:11.425Z,47.20
2018-07-19T14:45:40.611Z,47.20
2018-07-19T14:48:09.468Z,46.60
2018-07-19T14:50:40.447Z,46.50
2018-07-19T14:53:12.978Z,46.00
2018-07-19T14:55:46.170Z,46.10
2018-07-19T14:58:19.788Z,45.50
2018-07-19T15:00:49.221Z,43.50
2018-07-19T15:03:18.815Z,41.80
2018-07-19T15:08:18.024Z,39.10
2018-07-19T15:10:47.263Z,38.10
2018-07-19T15:13:37.646Z,37.60
2018-07-19T15:16:06.594Z,36.90
2018-07-19T15:18:36.095Z,36.50
2018-07-19T15:21:10.621Z,34.90
2018-07-19T15:23:41.134Z,34.10
2018-07-19T15:26:14.113Z,33.30
2018-07-19T15:28:43.367Z,32.50
2018-07-19T15:31:13.491Z,32.10
2018-07-19T15:33:45.347Z,31.30
2018-07-19T15:36:14.127Z,30.90
2018-07-19T15:38:45.327Z,30.10
2018-07-19T15:41:15.136Z,29.90
2018-07-19T15:43:43.764Z,29.90
2018-07-19T15:46:18.003Z,29.90
2018-07-19T15:48:47.426Z,29.70
2018-07-19T15:51:20.158Z,29.30
2018-07-19T15:53:50.061Z,28.80
2018-07-19T15:56:19.168Z,28.90
2018-07-19T15:58:50.848Z,28.90
2018-07-19T16:01:27.870Z,28.90
2018-07-19T16:03:57.651Z,29.00
2018-07-19T16:06:33.920Z,28.90
2018-07-19T16:09:12.494Z,28.70
2018-07-19T16:11:42.330Z,28.40
2018-07-19T16:14:18.291Z,28.50
2018-07-19T16:16:48.680Z,28.60
2018-07-19T16:19:18.887Z,28.20
2018-07-19T16:22:07.282Z,28.40
2018-07-19T16:24:43.973Z,28.00
2018-07-19T16:27:14.326Z,28.20
2018-07-19T16:29:47.385Z,28.40
2018-07-19T16:34:45.104Z,28.70
2018-07-19T16:37:14.125Z,29.00
2018-07-19T16:39:47.469Z,29.20
2018-07-19T16:42:21.640Z,29.30
2018-07-19T16:44:51.090Z,29.30
2018-07-19T16:52:35.992Z,31.70
2018-07-19T16:55:05.765Z,32.90
2018-07-19T16:57:34.619Z,33.80
2018-07-19T17:00:11.569Z,34.80
2018-07-19T17:02:59.528Z,35.80
2018-07-19T17:05:29.971Z,36.90
2018-07-19T17:07:59.806Z,37.50
2018-07-19T17:10:35.274Z,37.60
2018-07-19T17:13:09.289Z,37.80
2018-07-19T17:15:40.567Z,38.10
2018-07-19T17:23:32.868Z,38.70
2018-07-19T17:26:03.779Z,39.10
2018-07-19T17:28:36.419Z,39.60
2018-07-19T17:31:04.803Z,39.70
2018-07-19T17:33:45.665Z,39.80
2018-07-19T17:36:16.196Z,40.50
2018-07-19T17:38:48.286Z,41.30
2018-07-19T17:41:23.811Z,41.50
2018-07-19T17:43:57.838Z,41.50
2018-07-19T17:46:34.354Z,41.90
2018-07-19T17:49:08.679Z,42.20
2018-07-19T17:51:40.482Z,42.70
2018-07-19T17:54:10.276Z,43.50
2018-07-19T17:56:45.651Z,43.40
2018-07-19T17:59:24.187Z,43.70
2018-07-19T18:02:03.981Z,44.20
2018-07-19T18:04:35.725Z,44.30
2018-07-19T18:07:04.810Z,44.70
2018-07-19T18:09:33.603Z,45.30
2018-07-19T18:12:13.524Z,45.10
2018-07-19T18:14:51.291Z,45.00
2018-07-19T18:17:24.601Z,44.60
2018-07-19T18:19:57.286Z,44.60
2018-07-19T18:22:32.837Z,44.60
2018-07-19T18:25:02.144Z,44.60
2018-07-19T18:27:32.051Z,44.90
2018-07-19T18:30:05.279Z,45.00
2018-07-19T18:32:38.234Z,45.20
2018-07-19T18:35:08.110Z,45.50
2018-07-19T18:37:41.671Z,45.80
2018-07-19T18:40:10.942Z,45.90
2018-07-19T18:42:40.235Z,46.00
2018-07-19T18:45:18.931Z,46.30
2018-07-19T18:47:50.959Z,46.80
2018-07-19T18:50:20.707Z,47.00
2018-07-19T18:52:49.256Z,47.00
2018-07-19T18:55:24.718Z,47.20
2018-07-19T18:57:53.866Z,47.30
2018-07-19T19:00:22.974Z,47.40
2018-07-19T19:03:03.003Z,47.60
2018-07-19T19:05:33.954Z,47.70
2018-07-19T19:08:03.209Z,48.00
2018-07-19T19:10:31.939Z,48.20
2018-07-19T19:13:01.055Z,48.50
2018-07-19T19:15:30.103Z,49.00
2018-07-19T19:17:58.779Z,49.20
2018-07-19T19:20:27.650Z,49.70
2018-07-19T19:22:57.039Z,50.10
2018-07-19T19:25:25.967Z,50.20
2018-07-19T19:27:55.152Z,50.30
2018-07-19T19:30:23.703Z,50.50
2018-07-19T19:32:57.342Z,50.50
2018-07-19T19:35:26.713Z,50.50
2018-07-19T19:37:56.010Z,50.50
2018-07-19T19:40:24.744Z,50.60
2018-07-19T19:42:53.606Z,50.80
2018-07-19T19:45:26.108Z,50.90
2018-07-19T19:47:54.786Z,50.90
2018-07-19T19:50:24.162Z,51.10
2018-07-19T19:52:52.509Z,51.40
2018-07-19T19:55:20.978Z,51.70
2018-07-19T19:57:49.286Z,51.80
2018-07-19T20:00:17.614Z,52.00
2018-07-19T20:02:47.284Z,52.30
2018-07-19T20:05:16.329Z,52.50
2018-07-19T20:07:45.100Z,52.60
2018-07-19T20:10:14.485Z,52.70
2018-07-19T20:12:42.898Z,53.00
2018-07-19T20:17:41.382Z,53.60
2018-07-19T20:22:39.575Z,54.60
2018-07-19T20:25:09.022Z,54.00
2018-07-19T20:27:39.579Z,53.00
2018-07-19T20:30:07.973Z,52.50
2018-07-19T20:32:36.607Z,52.20
2018-07-19T20:35:05.450Z,52.10
2018-07-19T20:37:34.005Z,51.90
2018-07-19T20:40:02.330Z,51.90
2018-07-19T20:42:30.997Z,52.40
2018-07-19T20:44:59.472Z,52.70
2018-07-19T20:47:30.606Z,52.60
2018-07-19T20:49:59.258Z,52.20
2018-07-19T20:52:27.746Z,52.00
2018-07-19T20:54:58.479Z,52.40
2018-07-19T20:57:26.894Z,53.00
2018-07-19T20:59:57.097Z,53.10
2018-07-19T21:02:25.463Z,53.00
2018-07-19T21:04:54.835Z,53.00
2018-07-19T21:07:23.391Z,52.80
2018-07-19T21:09:52.098Z,52.40
2018-07-19T21:12:21.035Z,52.20
2018-07-19T21:14:50.058Z,52.20
2018-07-19T21:17:18.430Z,52.00
2018-07-19T21:19:46.766Z,52.00
2018-07-19T21:24:44.616Z,51.90
2018-07-19T21:27:14.185Z,51.90
2018-07-19T21:29:43.967Z,52.10
2018-07-19T21:32:12.445Z,52.30
2018-07-19T21:34:41.160Z,52.20
2018-07-19T21:37:09.592Z,52.00
2018-07-19T21:39:37.884Z,52.00
2018-07-19T21:42:07.613Z,52.10
2018-07-19T21:47:04.630Z,52.30
2018-07-19T21:49:32.933Z,52.00
2018-07-19T21:52:02.398Z,52.00
2018-07-19T21:54:30.684Z,51.10
2018-07-19T21:56:59.134Z,51.10
2018-07-19T21:59:27.467Z,51.30
2018-07-19T22:01:55.847Z,51.50
2018-07-19T22:04:24.598Z,51.60
2018-07-19T22:06:53.571Z,51.60
2018-07-19T22:09:23.517Z,51.60
2018-07-19T22:11:52.260Z,51.60
2018-07-19T22:14:20.524Z,51.80
2018-07-19T22:16:49.107Z,51.90
2018-07-19T22:19:19.342Z,51.90
2018-07-19T22:21:48.133Z,52.20
2018-07-19T22:24:16.410Z,52.40
2018-07-19T22:26:45.158Z,52.50
2018-07-19T22:29:13.418Z,52.60
2018-07-19T22:31:42.117Z,52.80
2018-07-19T22:34:10.479Z,53.00
2018-07-19T22:36:39.528Z,53.10
2018-07-19T22:39:10.654Z,53.20
2018-07-19T22:41:39.492Z,53.40
2018-07-19T22:44:07.898Z,53.50
2018-07-19T22:46:36.555Z,53.60
2018-07-19T22:49:05.776Z,53.60
2018-07-19T22:51:35.975Z,53.80
2018-07-19T22:54:07.807Z,53.90
2018-07-19T22:56:36.225Z,54.00
2018-07-19T22:59:04.483Z,54.00
2018-07-19T23:01:33.241Z,54.30
2018-07-19T23:04:01.719Z,54.60
2018-07-19T23:06:32.691Z,54.50
2018-07-19T23:09:01.341Z,54.50
2018-07-19T23:11:33.842Z,54.70
2018-07-19T23:14:02.382Z,54.80
2018-07-19T23:16:30.669Z,54.80
2018-07-19T23:18:59.979Z,55.00
2018-07-19T23:21:28.935Z,55.20
2018-07-19T23:24:02.240Z,55.30
2018-07-19T23:26:30.831Z,55.50
2018-07-19T23:28:59.216Z,55.40
2018-07-19T23:31:29.007Z,55.40
2018-07-19T23:33:57.811Z,55.60
2018-07-19T23:36:35.355Z,55.60
2018-07-19T23:39:17.631Z,55.70
2018-07-19T23:44:26.280Z,55.80
2018-07-19T23:47:00.242Z,55.90
2018-07-19T23:49:28.607Z,55.90
2018-07-19T23:51:57.329Z,56.00
2018-07-19T23:54:25.595Z,56.20
2018-07-19T23:56:53.866Z,56.30
2018-07-19T23:59:22.154Z,56.60
